CW2265 Weather Reports


Display with metric or nautical units.
time (UTC)temp
F
wind
direction
speed
MPH
gust
MPH
rain 1hr
in
rain 24hr
in
rain mn
in
humidity
%
barometer
mb
20180527140005 64 207 2.0 6.0 0.00 0.00 0.00 79 1012.7
20180527135504 64 207 3.0 6.0 0.00 0.00 0.00 81 1012.6
20180527135007 63 208 2.0 5.0 0.00 0.00 0.00 83 1012.6
20180527134504 63 208 2.0 3.0 0.00 0.00 0.00 83 1012.6
20180527134006 62 208 1.0 3.0 0.00 0.00 0.00 83 1012.6
20180527133505 62 208 1.0 3.0 0.00 0.00 0.00 82 1012.5
20180527133007 61 208 1.0 3.0 0.00 0.00 0.00 83 1012.5
20180527132503 61 208 1.0 3.0 0.00 0.00 0.00 83 1012.7
20180527130504 63 209 4.0 7.0 0.00 0.00 0.00 81 1012.4
20180527130004 63 209 3.0 6.0 0.00 0.00 0.00 80 1012.4
20180527125504 63 209 3.0 5.0 0.00 0.00 0.00 82 1012.4
20180527125006 63 209 3.0 5.0 0.00 0.00 0.00 83 1012.4
20180527124504 62 209 1.0 3.0 0.00 0.00 0.00 84 1012.3
20180527124007 62 209 0.0 0.0 0.00 0.00 0.00 84 1012.3
20180527123504 61 209 0.0 0.0 0.00 0.00 0.00 84 1012.3
20180527123006 61 209 0.0 0.0 0.00 0.00 0.00 84 1012.3
20180527122504 61 209 1.0 3.0 0.00 0.00 0.00 85 1012.4
20180527122005 60 209 1.0 3.0 0.00 0.00 0.00 85 1012.4
20180527121504 60 209 2.0 3.0 0.00 0.00 0.00 85 1012.4
20180527121006 60 209 2.0 3.0 0.00 0.00 0.00 87 1012.4
20180527120504 59 209 0.0 3.0 0.00 0.00 0.00 88 1012.3
20180527120005 59 209 1.0 3.0 0.00 0.00 0.00 88 1012.2
20180527115505 58 209 0.0 3.0 0.00 0.00 0.00 88 1012.2
20180527115007 58 209 0.0 0.0 0.00 0.00 0.00 88 1012.2
20180527114503 58 209 0.0 0.0 0.00 0.00 0.00 88 1012.2
20180527114005 58 209 0.0 0.0 0.00 0.00 0.00 88 1011.9
20180527113504 57 209 0.0 0.0 0.00 0.00 0.00 88 1011.9
20180527113007 57 209 0.0 3.0 0.00 0.00 0.00 89 1011.9
20180527112504 57 209 0.0 3.0 0.00 0.00 0.00 88 1011.9
20180527112006 57 209 2.0 3.0 0.00 0.00 0.00 89 1011.9
20180527111505 57 209 1.0 3.0 0.00 0.00 0.00 89 1011.9
20180527111006 57 209 0.0 2.0 0.00 0.00 0.00 89 1011.9
20180527110504 57 209 1.0 3.0 0.00 0.00 0.00 90 1011.8
20180527110005 57 209 0.0 2.0 0.00 0.00 0.00 90 1011.8
20180527105504 57 209 0.0 3.0 0.00 0.00 0.00 90 1011.8
20180527105007 57 209 1.0 3.0 0.00 0.00 0.00 89 1011.8
20180527104504 57 209 3.0 5.0 0.00 0.00 0.00 90 1011.2
20180527104006 57 209 1.0 2.0 0.00 0.00 0.00 90 1011.2
20180527103504 57 209 1.0 3.0 0.00 0.00 0.00 90 1011.2
20180527103007 57 209 1.0 2.0 0.00 0.00 0.00 91 1011.2
20180527095006 56 209 0.0 0.0 0.00 0.00 0.00 90 1010.8
20180527094504 56 209 0.0 0.0 0.00 0.00 0.00 90 1010.8
20180527094007 56 209 0.0 0.0 0.00 0.00 0.00 90 1010.8
20180527093505 56 209 0.0 0.0 0.00 0.00 0.00 90 1010.9
20180527093006 56 209 0.0 0.0 0.00 0.00 0.00 90 1010.8
20180527092504 56 209 0.0 0.0 0.00 0.00 0.00 90 1010.8
20180527092007 56 209 0.0 0.0 0.00 0.00 0.00 89 1010.8
20180527091006 56 209 0.0 0.0 0.00 0.00 0.00 89 1010.8
20180527090504 56 209 0.0 1.0 0.00 0.00 0.00 90 1010.8
20180527090006 56 209 0.0 0.0 0.00 0.00 0.00 90 1010.8
20180527085504 56 209 0.0 0.0 0.00 0.00 0.00 90 1010.8
20180527085006 56 209 0.0 0.0 0.00 0.00 0.00 90 1010.8
20180527084504 56 209 0.0 0.0 0.00 0.00 0.00 90 1010.8
20180527084009 56 209 0.0 0.0 0.00 0.00 0.00 90 1010.8
20180527083504 56 209 0.0 0.0 0.00 0.00 0.00 90 1010.8
20180527083006 56 209 0.0 0.0 0.00 0.00 0.00 90 1010.8
20180527082504 56 209 0.0 0.0 0.00 0.00 0.00 90 1010.8
20180527082006 56 209 0.0 0.0 0.00 0.00 0.00 90 1010.8
20180527081504 56 209 0.0 0.0 0.00 0.00 0.00 90 1010.8
20180527081007 56 209 0.0 0.0 0.00 0.00 0.00 90 1010.8
20180527080504 56 209 0.0 0.0 0.00 0.00 0.00 90 1010.8
20180527080007 56 209 0.0 0.0 0.00 0.00 0.00 89 1010.8
20180527075504 57 209 0.0 0.0 0.00 0.00 0.00 89 1010.8
20180527075007 57 209 0.0 0.0 0.00 0.00 0.00 89 1010.7
20180527074504 57 209 0.0 0.0 0.00 0.00 0.00 89 1010.7
20180527074005 57 209 0.0 0.0 0.00 0.00 0.00 88 1010.7
20180527073504 57 209 0.0 0.0 0.00 0.00 0.00 88 1010.7
20180527073007 57 209 0.0 1.0 0.00 0.00 0.00 88 1010.7
20180527072504 57 209 0.0 0.0 0.00 0.00 0.00 88 1010.5
20180527072005 57 209 0.0 0.0 0.00 0.00 0.00 88 1010.5
20180527071504 57 209 0.0 0.0 0.00 0.00 0.00 88 1010.5
20180527071007 58 209 0.0 0.0 0.00 0.00 0.00 88 1010.6
20180527070504 58 209 0.0 0.0 0.00 0.00 0.00 88 1010.4
20180527070006 58 209 0.0 0.0 0.00 0.00 0.00 88 1010.6
20180527065504 58 209 1.0 3.0 0.00 0.00 0.00 88 1010.6
20180527065006 58 209 0.0 1.0 0.00 0.00 0.00 88 1010.6
20180527064504 58 209 0.0 0.0 0.00 0.00 0.00 88 1010.7
20180527064007 58 209 0.0 1.0 0.00 0.00 0.00 88 1010.7
20180527063505 58 209 0.0 1.0 0.00 0.00 0.00 88 1010.3
20180527063006 58 209 0.0 0.0 0.00 0.00 0.00 88 1010.3
20180527062504 58 209 0.0 1.0 0.00 0.00 0.00 88 1010.3
20180527062006 58 209 0.0 0.0 0.00 0.00 0.00 87 1010.3
20180527061505 58 209 0.0 0.0 0.00 0.00 0.00 86 1010.3
20180527061006 58 209 0.0 3.0 0.00 0.00 0.00 86 1010.2
20180527060504 59 209 0.0 3.0 0.00 0.00 0.00 85 1010.2
20180527060005 59 209 3.0 7.0 0.00 0.00 0.00 84 1010.2
20180527055504 60 221 3.0 7.0 0.00 0.00 0.00 83 1010.2
20180527051006 66 238 2.0 6.0 0.00 0.00 0.00 77 1010.2
20180527050504 67 238 0.0 1.0 0.00 0.00 0.00 78 1010.3
20180527050007 67 238 0.0 2.0 0.00 0.00 0.00 78 1010.3
20180527045504 67 238 0.0 0.0 0.00 0.00 0.00 78 1010.3
20180527045007 68 238 0.0 0.0 0.00 0.00 0.00 76 1010.2
20180527044505 68 238 0.0 0.0 0.00 0.00 0.00 76 1010.2
20180527043504 68 238 0.0 3.0 0.00 0.00 0.00 76 1010.3
20180527043007 68 238 0.0 2.0 0.00 0.00 0.00 76 1010.2
20180527042504 68 238 0.0 0.0 0.00 0.00 0.00 76 1010.2
20180527042006 68 238 0.0 0.0 0.00 0.00 0.00 76 1010.2
20180527041504 68 238 0.0 2.0 0.00 0.00 0.00 76 1010.2
20180527041007 68 238 0.0 1.0 0.00 0.00 0.00 76 1010.2
20180527040504 69 238 0.0 2.0 0.00 0.00 0.00 76 1010.2
20180527040005 69 238 0.0 0.0 0.00 0.00 0.00 76 1010.2
20180527035504 69 238 0.0 0.0 0.00 0.00 0.00 76 1010.2
20180527035006 69 238 0.0 0.0 0.00 0.00 0.00 76 1010.2
20180527034504 69 238 0.0 0.0 0.00 0.00 0.00 76 1010.2
20180527034005 68 238 0.0 1.0 0.00 0.00 0.00 76 1010.2
20180527033504 68 238 0.0 2.0 0.00 0.00 0.00 76 1010.2
20180527033006 69 238 0.0 2.0 0.00 0.00 0.00 76 1010.2
20180527032503 69 238 0.0 3.0 0.00 0.00 0.00 75 1010.2
20180527032005 69 238 1.0 3.0 0.00 0.00 0.00 75 1010.3
20180527031504 69 237 0.0 0.0 0.00 0.00 0.00 75 1010.2
20180527031007 69 237 0.0 0.0 0.00 0.00 0.00 75 1010.2
20180527030504 69 237 0.0 0.0 0.00 0.00 0.00 75 1010.2
20180527030005 69 237 0.0 0.0 0.00 0.00 0.00 74 1010.2
20180527025504 69 237 0.0 0.0 0.00 0.00 0.00 74 1010.4
20180527025006 69 237 0.0 1.0 0.00 0.00 0.00 74 1010.4
20180527024504 69 237 0.0 2.0 0.00 0.00 0.00 74 1010.4
20180527024007 69 237 0.0 1.0 0.00 0.00 0.00 73 1010.4
20180527023504 69 237 0.0 0.0 0.00 0.00 0.00 72 1010.4
20180527020504 69 237 0.0 0.0 0.00 0.00 0.00 71 1009.8
20180527020006 69 237 0.0 0.0 0.00 0.00 0.00 71 1009.8
20180527015504 69 237 0.0 0.0 0.00 0.00 0.00 71 1009.7
20180527015006 69 237 0.0 0.0 0.00 0.00 0.00 71 1009.7
20180527014504 69 237 0.0 0.0 0.00 0.00 0.00 70 1009.7
20180527014006 69 237 0.0 0.0 0.00 0.00 0.00 70 1009.7
20180527013504 69 237 0.0 0.0 0.00 0.00 0.00 70 1009.7
20180527012504 70 237 0.0 0.0 0.00 0.00 0.00 69 1009.5
20180527012008 70 237 0.0 0.0 0.00 0.00 0.00 68 1009.6
20180527003504 71 237 0.0 0.0 0.00 0.00 0.00 65 1008.5
20180527003006 71 237 0.0 0.0 0.00 0.00 0.00 64 1008.5
20180527002504 71 237 0.0 0.0 0.00 0.00 0.00 63 1008.5
20180527002005 72 237 1.0 3.0 0.00 0.00 0.00 63 1008.5
20180527001504 73 237 0.0 3.0 0.00 0.00 0.00 61 1008.5
20180527001007 74 236 2.0 9.0 0.00 0.00 0.00 59 1008.5
20180527000504 75 237 3.0 9.0 0.00 0.00 0.00 58 1008.5
20180527000004 77 238 3.0 7.0 0.00 0.00 0.00 56 1008.5
20180526235504 78 252 1.0 6.0 0.00 0.00 0.00 54 1008.5
20180526235006 80 256 2.0 6.0 0.00 0.00 0.00 54 1008.5
20180526234505 80 32 0.0 1.0 0.00 0.00 0.00 53 1008.0
20180526234006 80 33 0.0 2.0 0.00 0.00 0.00 53 1008.0
20180526225504 82 40 1.0 3.0 0.00 0.00 0.00 53 1007.7
20180526225006 82 42 1.0 2.0 0.00 0.00 0.00 53 1007.6
20180526224504 82 42 1.0 3.0 0.00 0.00 0.00 52 1007.6
20180526224006 82 42 1.0 5.0 0.00 0.00 0.00 52 1007.6
20180526223504 82 46 3.0 8.0 0.00 0.00 0.00 52 1007.6
20180526223007 82 41 2.0 6.0 0.00 0.00 0.00 52 1007.6
20180526222504 82 46 2.0 6.0 0.00 0.00 0.00 51 1007.6
20180526222006 82 44 3.0 8.0 0.00 0.00 0.00 51 1007.6
20180526221504 82 47 3.0 8.0 0.00 0.00 0.00 51 1007.6
20180526221006 82 51 2.0 5.0 0.00 0.00 0.00 52 1007.6
20180526215006 81 42 1.0 3.0 0.00 0.00 0.00 54 1007.6
20180526214005 81 84 3.0 7.0 0.00 0.00 0.00 52 1007.6
20180526213503 81 55 2.0 8.0 0.00 0.00 0.00 51 1007.6
20180526213006 82 43 2.0 7.0 0.00 0.00 0.00 52 1007.6
20180526212504 82 46 0.0 2.0 0.00 0.00 0.00 54 1007.5
20180526212006 81 48 1.0 6.0 0.00 0.00 0.00 53 1007.5
20180526211504 81 93 2.0 5.0 0.00 0.00 0.00 54 1007.5
20180526211006 81 69 2.0 3.0 0.00 0.00 0.00 53 1007.5
20180526210504 81 75 3.0 7.0 0.00 0.00 0.00 53 1007.5
20180526210005 81 50 4.0 9.0 0.00 0.00 0.00 50 1007.5
20180526205504 82 73 4.0 12.0 0.00 0.00 0.00 52 1007.5
20180526205006 81 57 4.0 12.0 0.00 0.00 0.00 51 1007.5
20180526204504 81 63 4.0 12.0 0.00 0.00 0.00 52 1007.5
20180526204007 81 85 5.0 14.0 0.00 0.00 0.00 54 1007.5
20180526193504 81 37 3.0 10.0 0.00 0.00 0.00 50 1007.8
20180526193007 80 35 2.0 7.0 0.00 0.00 0.00 51 1007.8
20180526192504 80 62 3.0 9.0 0.00 0.00 0.00 50 1007.8
20180526192005 79 43 2.0 6.0 0.00 0.00 0.00 53 1007.8
20180526191504 79 34 1.0 6.0 0.00 0.00 0.00 54 1008.1
20180526191006 79 35 3.0 9.0 0.00 0.00 0.00 52 1008.1
20180526190504 79 42 3.0 8.0 0.00 0.00 0.00 52 1008.1
20180526190005 79 32 2.0 9.0 0.00 0.00 0.00 52 1008.1
20180526185504 79 26 4.0 13.0 0.00 0.00 0.00 50 1008.1
20180526185005 79 63 5.0 14.0 0.00 0.00 0.00 51 1008.1
20180526184504 79 36 3.0 8.0 0.00 0.00 0.00 54 1008.1
20180526184006 79 34 2.0 8.0 0.00 0.00 0.00 53 1008.1
20180526183504 78 0 2.0 3.0 0.00 0.00 0.00 55 1008.1
20180526183006 78 6 2.0 6.0 0.00 0.00 0.00 56 1008.1
20180526182504 78 17 3.0 7.0 0.00 0.00 0.00 56 1008.1
20180526182006 78 21 4.0 13.0 0.00 0.00 0.00 56 1008.1
20180526181504 79 35 3.0 8.0 0.00 0.00 0.00 56 1008.1
20180526181006 79 26 3.0 9.0 0.00 0.00 0.00 57 1008.1
20180526180504 80 33 2.0 10.0 0.00 0.00 0.00 58 1008.1
20180526180005 80 20 4.0 12.0 0.00 0.00 0.00 58 1008.1
20180526175504 80 51 2.0 6.0 0.00 0.00 0.00 56 1008.1
20180526175006 80 64 1.0 7.0 0.00 0.00 0.00 55 1008.1
20180526174504 80 104 2.0 3.0 0.00 0.00 0.00 55 1008.1
20180526174005 80 107 1.0 5.0 0.00 0.00 0.00 57 1008.1
20180526173504 80 119 1.0 5.0 0.00 0.00 0.00 57 1008.1
20180526173007 80 134 0.0 3.0 0.00 0.00 0.00 56 1008.1
20180526171504 81 134 1.0 3.0 0.00 0.00 0.00 54 1008.2
20180526171007 81 140 1.0 3.0 0.00 0.00 0.00 55 1008.2
20180526170504 81 140 1.0 5.0 0.00 0.00 0.00 54 1008.3
20180526170005 81 140 1.0 2.0 0.00 0.00 0.00 54 1008.4
20180526165504 81 140 1.0 2.0 0.00 0.00 0.00 54 1008.4
20180526165005 81 140 0.0 3.0 0.00 0.00 0.00 53 1008.3
20180526164504 81 140 1.0 3.0 0.00 0.00 0.00 50 1008.3
20180526164006 81 140 1.0 3.0 0.00 0.00 0.00 50 1008.3
20180526163504 80 140 0.0 2.0 0.00 0.00 0.00 50 1008.1
20180526163007 80 140 0.0 2.0 0.00 0.00 0.00 50 1008.1
20180526162504 80 140 0.0 2.0 0.00 0.00 0.00 51 1008.1
20180526162005 80 140 0.0 1.0 0.00 0.00 0.00 55 1008.1
20180526161505 79 140 0.0 2.0 0.00 0.00 0.00 51 1008.1
20180526161007 79 140 0.0 3.0 0.00 0.00 0.00 52 1008.2
20180526160504 79 140 1.0 3.0 0.00 0.00 0.00 53 1008.2
20180526160005 79 140 0.0 2.0 0.00 0.00 0.00 54 1008.2
20180526155504 78 140 1.0 3.0 0.00 0.00 0.00 54 1008.4
20180526155006 78 140 1.0 3.0 0.00 0.00 0.00 53 1008.4
20180526154504 78 140 1.0 3.0 0.00 0.00 0.00 54 1008.4
20180526154006 78 140 1.0 3.0 0.00 0.00 0.00 56 1008.6
20180526153504 78 140 0.0 2.0 0.00 0.00 0.00 56 1008.6
20180526151006 78 140 0.0 3.0 0.00 0.00 0.00 54 1008.6
20180526150005 77 140 2.0 3.0 0.00 0.00 0.00 57 1008.5
20180526145504 77 140 0.0 3.0 0.00 0.00 0.00 55 1008.5
20180526145006 77 140 0.0 3.0 0.00 0.00 0.00 55 1008.5
20180526144504 77 140 1.0 5.0 0.00 0.00 0.00 58 1008.5
20180526144005 76 140 0.0 0.0 0.00 0.00 0.00 55 1008.5
20180526143504 76 140 0.0 3.0 0.00 0.00 0.00 55 1008.4
20180526143007 76 140 1.0 3.0 0.00 0.00 0.00 58 1008.5
20180526142503 76 140 0.0 1.0 0.00 0.00 0.00 56 1008.5
20180526142005 75 140 2.0 5.0 0.00 0.00 0.00 57 1008.4
20180526141504 75 148 0.0 3.0 0.00 0.00 0.00 57 1008.4
20180526141006 75 148 1.0 3.0 0.00 0.00 0.00 60 1008.4
20180526140504 74 148 1.0 3.0 0.00 0.00 0.00 59 1008.4